createdAt,value
2022-12-08T00:02:11.705Z,4.30
2022-12-08T00:04:58.304Z,4.30
2022-12-08T00:07:43.517Z,4.30
2022-12-08T00:10:39.530Z,4.20
2022-12-08T00:12:56.547Z,4.20
2022-12-08T00:15:23.020Z,4.20
2022-12-08T00:17:49.441Z,4.30
2022-12-08T00:20:16.040Z,4.20
2022-12-08T00:22:42.494Z,4.20
2022-12-08T00:25:09.135Z,4.20
2022-12-08T00:27:35.585Z,4.20
2022-12-08T00:30:02.016Z,4.10
2022-12-08T00:32:28.504Z,4.10
2022-12-08T00:34:55.029Z,4.10
2022-12-08T00:37:21.468Z,4.20
2022-12-08T00:39:48.053Z,4.20
2022-12-08T00:42:14.694Z,4.10
2022-12-08T00:44:42.224Z,4.10
2022-12-08T00:47:08.777Z,4.20
2022-12-08T00:49:35.327Z,4.20
2022-12-08T00:52:01.917Z,4.20
2022-12-08T00:54:28.473Z,4.20
2022-12-08T00:56:54.942Z,4.20
2022-12-08T00:59:21.454Z,4.30
2022-12-08T01:01:47.943Z,4.20
2022-12-08T01:04:18.233Z,4.20
2022-12-08T01:06:45.236Z,4.20
2022-12-08T01:09:12.386Z,4.20
2022-12-08T01:11:38.858Z,4.20
2022-12-08T01:14:05.340Z,4.20
2022-12-08T01:16:33.379Z,4.20
2022-12-08T01:19:00.284Z,4.20
2022-12-08T01:21:26.974Z,4.20
2022-12-08T01:23:53.873Z,4.20
2022-12-08T01:26:20.321Z,4.20
2022-12-08T01:28:47.149Z,4.30
2022-12-08T01:31:15.347Z,4.30
2022-12-08T01:33:42.407Z,4.30
2022-12-08T01:36:09.417Z,4.30
2022-12-08T01:38:35.871Z,4.20
2022-12-08T01:41:02.335Z,4.20
2022-12-08T01:43:47.629Z,4.20
2022-12-08T01:46:14.145Z,4.20
2022-12-08T01:48:40.634Z,4.20
2022-12-08T01:51:07.354Z,4.20
2022-12-08T01:53:33.881Z,4.20
2022-12-08T01:56:04.424Z,4.20
2022-12-08T01:58:34.152Z,4.20
2022-12-08T02:01:00.645Z,4.20
2022-12-08T02:03:29.428Z,4.20
2022-12-08T02:05:55.907Z,4.30
2022-12-08T02:08:22.747Z,4.30
2022-12-08T02:10:49.367Z,4.30
2022-12-08T02:13:17.249Z,4.30
2022-12-08T02:16:02.601Z,4.30
2022-12-08T02:18:57.720Z,4.30
2022-12-08T02:21:39.163Z,4.30
2022-12-08T02:24:22.732Z,4.30
2022-12-08T02:26:52.291Z,4.30
2022-12-08T02:29:37.505Z,4.30
2022-12-08T02:32:23.043Z,4.40
2022-12-08T02:34:57.321Z,4.30
2022-12-08T02:37:23.744Z,4.30
2022-12-08T02:39:50.185Z,4.30
2022-12-08T02:42:27.774Z,4.30
2022-12-08T02:44:57.273Z,4.30
2022-12-08T02:47:24.958Z,4.30
2022-12-08T02:49:51.413Z,4.30
2022-12-08T02:52:18.009Z,4.30
2022-12-08T02:54:47.059Z,4.30
2022-12-08T02:57:30.276Z,4.20
2022-12-08T03:00:10.988Z,4.20
2022-12-08T03:02:48.915Z,4.20
2022-12-08T03:05:27.498Z,4.30
2022-12-08T03:07:53.998Z,4.20
2022-12-08T03:10:26.574Z,4.20
2022-12-08T03:12:56.350Z,4.20
2022-12-08T03:15:22.869Z,4.10
2022-12-08T03:17:52.586Z,4.10
2022-12-08T03:20:21.110Z,4.10
2022-12-08T03:22:49.236Z,4.20
2022-12-08T03:25:17.432Z,4.20
2022-12-08T03:27:44.031Z,4.10
2022-12-08T03:30:10.874Z,4.10
2022-12-08T03:32:37.322Z,4.10
2022-12-08T03:35:06.358Z,4.10
2022-12-08T03:37:35.453Z,4.10
2022-12-08T03:40:03.278Z,4.10
2022-12-08T03:42:30.020Z,4.10
2022-12-08T03:44:56.513Z,4.20
2022-12-08T03:47:22.975Z,4.20
2022-12-08T03:49:49.469Z,4.20
2022-12-08T03:52:15.995Z,4.20
2022-12-08T03:54:42.432Z,4.20
2022-12-08T03:57:09.041Z,4.10
2022-12-08T03:59:35.496Z,4.20
2022-12-08T04:02:01.995Z,4.20
2022-12-08T04:04:28.598Z,4.20
2022-12-08T04:06:55.058Z,4.20
2022-12-08T04:09:21.548Z,4.30
2022-12-08T04:11:48.037Z,4.20
2022-12-08T04:14:15.500Z,4.20
2022-12-08T04:16:41.947Z,4.20
2022-12-08T04:19:08.489Z,4.20
2022-12-08T04:21:34.929Z,4.20
2022-12-08T04:24:01.716Z,4.20
2022-12-08T04:26:28.326Z,4.20
2022-12-08T04:28:54.828Z,4.20
2022-12-08T04:31:21.475Z,4.20
2022-12-08T04:33:48.628Z,4.20
2022-12-08T04:36:15.161Z,4.20
2022-12-08T04:38:41.651Z,4.20
2022-12-08T04:41:08.145Z,4.20
2022-12-08T04:43:35.425Z,4.20
2022-12-08T04:46:01.945Z,4.20
2022-12-08T04:48:28.516Z,4.20
2022-12-08T04:50:55.032Z,4.20
2022-12-08T04:53:21.500Z,4.20
2022-12-08T04:55:49.587Z,4.20
2022-12-08T04:58:17.252Z,4.20
2022-12-08T05:00:44.163Z,4.20
2022-12-08T05:03:10.815Z,4.20
2022-12-08T05:05:37.283Z,4.20
2022-12-08T05:08:03.999Z,4.20
2022-12-08T05:10:30.751Z,4.20
2022-12-08T05:12:58.041Z,4.20
2022-12-08T05:15:24.604Z,4.20
2022-12-08T05:17:51.088Z,4.20
2022-12-08T05:20:17.679Z,4.30
2022-12-08T05:22:44.186Z,4.20
2022-12-08T05:25:10.869Z,4.20
2022-12-08T05:27:37.440Z,4.20
2022-12-08T05:30:04.390Z,4.20
2022-12-08T05:32:31.176Z,4.20
2022-12-08T05:34:57.725Z,4.30
2022-12-08T05:37:24.183Z,4.20
2022-12-08T05:39:50.608Z,4.20
2022-12-08T05:42:20.553Z,4.20
2022-12-08T05:44:50.938Z,4.10
2022-12-08T05:47:17.389Z,4.10
2022-12-08T05:49:43.918Z,4.10
2022-12-08T05:52:10.361Z,4.10
2022-12-08T05:54:36.889Z,4.10
2022-12-08T05:57:03.357Z,4.10
2022-12-08T05:59:29.855Z,4.10
2022-12-08T06:01:56.426Z,4.20
2022-12-08T06:04:22.932Z,4.20
2022-12-08T06:06:49.512Z,4.10
2022-12-08T06:09:16.187Z,4.10
2022-12-08T06:11:42.703Z,4.10
2022-12-08T06:14:12.190Z,4.20
2022-12-08T06:16:38.747Z,4.10
2022-12-08T06:19:05.264Z,4.20
2022-12-08T06:21:31.733Z,4.20
2022-12-08T06:23:58.206Z,4.20
2022-12-08T06:26:24.795Z,4.20
2022-12-08T06:28:51.651Z,4.20
2022-12-08T06:31:19.790Z,4.20
2022-12-08T06:33:46.840Z,4.20
2022-12-08T06:36:14.121Z,4.20
2022-12-08T06:38:43.511Z,4.20
2022-12-08T06:41:10.905Z,4.20
2022-12-08T06:43:37.381Z,4.20
2022-12-08T06:46:05.317Z,4.20
2022-12-08T06:48:31.824Z,4.20
2022-12-08T06:51:05.119Z,4.20
2022-12-08T06:53:32.473Z,4.20
2022-12-08T06:55:59.962Z,4.10
2022-12-08T06:58:26.673Z,4.10
2022-12-08T07:00:53.683Z,4.10
2022-12-08T07:03:20.531Z,4.10
2022-12-08T07:05:47.059Z,4.20
2022-12-08T07:08:13.628Z,4.20
2022-12-08T07:10:40.255Z,4.20
2022-12-08T07:13:06.759Z,4.10
2022-12-08T07:15:33.313Z,4.20
2022-12-08T07:18:00.506Z,4.20
2022-12-08T07:20:27.569Z,4.10
2022-12-08T07:22:54.085Z,4.10
2022-12-08T07:25:20.634Z,4.10
2022-12-08T07:27:47.711Z,4.10
2022-12-08T07:30:14.836Z,4.10
2022-12-08T07:32:41.362Z,4.00
2022-12-08T07:35:08.272Z,4.10
2022-12-08T07:37:35.735Z,4.00
2022-12-08T07:40:02.621Z,4.10
2022-12-08T07:42:29.380Z,4.00
2022-12-08T07:44:56.089Z,4.10
2022-12-08T07:47:22.518Z,4.10
2022-12-08T07:49:48.996Z,4.00
2022-12-08T07:52:15.551Z,4.00
2022-12-08T07:54:42.002Z,4.00
2022-12-08T07:57:09.726Z,4.00
2022-12-08T07:59:36.449Z,4.10
2022-12-08T08:02:23.051Z,4.00
2022-12-08T08:04:50.800Z,4.10
2022-12-08T08:07:17.444Z,4.00
2022-12-08T08:09:44.008Z,4.00
2022-12-08T08:12:30.170Z,4.00
2022-12-08T08:14:56.938Z,4.00
2022-12-08T08:17:23.684Z,4.00
2022-12-08T08:19:50.301Z,4.10
2022-12-08T08:22:16.777Z,4.10
2022-12-08T08:24:45.266Z,4.10
2022-12-08T08:27:12.169Z,4.10
2022-12-08T08:29:38.628Z,4.10
2022-12-08T08:32:05.665Z,4.10
2022-12-08T08:34:32.186Z,4.20
2022-12-08T08:36:58.714Z,4.10
2022-12-08T08:39:25.365Z,4.20
2022-12-08T08:41:51.979Z,4.20
2022-12-08T08:44:18.476Z,4.20
2022-12-08T08:46:44.993Z,4.30
2022-12-08T08:49:11.464Z,4.20
2022-12-08T08:51:37.986Z,4.30
2022-12-08T08:54:04.647Z,4.30
2022-12-08T08:56:31.164Z,4.30
2022-12-08T08:58:57.926Z,4.40
2022-12-08T09:01:25.879Z,4.50
2022-12-08T09:03:52.439Z,4.40
2022-12-08T09:06:19.675Z,4.50
2022-12-08T09:08:47.749Z,4.50
2022-12-08T09:11:14.525Z,4.50
2022-12-08T09:13:41.096Z,4.60
2022-12-08T09:16:08.343Z,4.70
2022-12-08T09:18:35.164Z,4.80
2022-12-08T09:21:05.699Z,4.80
2022-12-08T09:23:35.451Z,4.90
2022-12-08T09:26:03.038Z,4.90
2022-12-08T09:28:29.560Z,4.90
2022-12-08T09:30:56.089Z,5.00
2022-12-08T09:33:22.605Z,5.10
2022-12-08T09:35:49.142Z,5.10
2022-12-08T09:38:15.934Z,5.10
2022-12-08T09:40:47.322Z,5.10
2022-12-08T09:43:16.833Z,5.20
2022-12-08T09:45:43.947Z,5.20
2022-12-08T09:48:12.910Z,5.20
2022-12-08T09:50:43.446Z,5.30
2022-12-08T09:53:14.544Z,5.30
2022-12-08T09:55:50.568Z,5.40
2022-12-08T09:58:29.251Z,5.50
2022-12-08T10:00:55.884Z,5.50
2022-12-08T10:03:24.276Z,5.50
2022-12-08T10:06:12.347Z,5.70
2022-12-08T10:08:50.785Z,5.60
2022-12-08T10:11:21.948Z,5.70
2022-12-08T10:13:58.818Z,5.70
2022-12-08T10:16:33.416Z,5.70
2022-12-08T10:19:14.744Z,5.60
2022-12-08T10:21:42.107Z,5.80
2022-12-08T10:24:31.384Z,5.80
2022-12-08T10:26:57.897Z,5.70
2022-12-08T10:29:24.360Z,5.70
2022-12-08T10:31:50.940Z,5.70
2022-12-08T10:34:19.116Z,5.60
2022-12-08T10:36:51.711Z,5.70
2022-12-08T10:39:29.219Z,5.70
2022-12-08T10:42:02.672Z,5.70
2022-12-08T10:44:29.263Z,5.60
2022-12-08T10:46:55.823Z,5.60
2022-12-08T10:49:32.219Z,5.60
2022-12-08T10:51:58.728Z,5.60
2022-12-08T10:54:27.421Z,5.40
2022-12-08T10:56:55.410Z,5.50
2022-12-08T10:59:21.855Z,5.40
2022-12-08T11:01:49.730Z,5.50
2022-12-08T11:04:21.126Z,5.50
2022-12-08T11:06:48.763Z,5.50
2022-12-08T11:09:15.171Z,5.40
2022-12-08T11:11:49.421Z,5.40
2022-12-08T11:14:23.383Z,5.40
2022-12-08T11:16:50.952Z,5.50
2022-12-08T11:19:18.485Z,5.60
2022-12-08T11:21:45.335Z,5.60
2022-12-08T11:24:23.242Z,5.70
2022-12-08T11:26:52.694Z,5.70
2022-12-08T11:29:19.527Z,5.80
2022-12-08T11:31:49.834Z,5.90
2022-12-08T11:34:28.389Z,5.90
2022-12-08T11:36:55.539Z,5.90
2022-12-08T11:39:22.498Z,6.00
2022-12-08T11:41:50.582Z,6.00
2022-12-08T11:44:20.432Z,6.00
2022-12-08T11:46:50.736Z,6.10
2022-12-08T11:49:18.688Z,6.10
2022-12-08T11:51:52.936Z,6.40
2022-12-08T11:54:24.283Z,6.50
2022-12-08T11:56:58.328Z,6.60
2022-12-08T11:59:27.827Z,6.60
2022-12-08T12:01:54.504Z,6.60
2022-12-08T12:04:26.381Z,6.60
2022-12-08T12:07:11.356Z,6.40
2022-12-08T12:09:37.813Z,6.50
2022-12-08T12:12:21.914Z,6.40
2022-12-08T12:14:57.367Z,6.30
2022-12-08T12:17:34.432Z,6.30
2022-12-08T12:20:05.027Z,6.50
2022-12-08T12:22:34.689Z,6.50
2022-12-08T12:25:02.036Z,6.60
2022-12-08T12:27:32.639Z,6.60
2022-12-08T12:30:04.113Z,6.60
2022-12-08T12:32:41.347Z,6.50
2022-12-08T12:35:14.160Z,6.40
2022-12-08T12:37:42.472Z,6.40
2022-12-08T12:40:17.280Z,6.40
2022-12-08T12:42:50.799Z,6.30
2022-12-08T12:45:17.301Z,6.40
2022-12-08T12:47:49.722Z,6.40
2022-12-08T12:50:33.072Z,6.50
2022-12-08T12:53:05.149Z,6.70
2022-12-08T12:55:53.066Z,6.70
2022-12-08T12:58:29.337Z,6.60
2022-12-08T13:01:14.066Z,6.60
2022-12-08T13:03:51.827Z,6.80
2022-12-08T13:06:22.611Z,6.60
2022-12-08T13:08:53.182Z,6.60
2022-12-08T13:11:20.869Z,6.50
2022-12-08T13:14:03.286Z,6.50
2022-12-08T13:16:34.608Z,6.50
2022-12-08T13:19:03.930Z,6.50
2022-12-08T13:21:35.294Z,6.60
2022-12-08T13:24:14.267Z,6.60
2022-12-08T13:26:44.904Z,6.50
2022-12-08T13:29:16.374Z,6.50
2022-12-08T13:32:02.223Z,6.40
2022-12-08T13:34:36.891Z,6.30
2022-12-08T13:37:12.642Z,6.30
2022-12-08T13:39:39.083Z,6.20
2022-12-08T13:42:07.214Z,6.20
2022-12-08T13:45:18.677Z,6.10
2022-12-08T13:47:34.259Z,6.10
2022-12-08T13:58:41.532Z,6.30
2022-12-08T14:01:16.248Z,6.40
2022-12-08T14:04:11.724Z,6.50
2022-12-08T14:06:35.713Z,6.60
2022-12-08T14:09:10.270Z,6.60
2022-12-08T14:11:39.302Z,6.60
2022-12-08T14:14:07.419Z,6.70
2022-12-08T14:16:38.859Z,6.60
2022-12-08T14:19:06.444Z,6.60
2022-12-08T14:21:36.248Z,6.50
2022-12-08T14:24:03.169Z,6.50
2022-12-08T14:26:32.407Z,6.50
2022-12-08T14:28:59.243Z,6.40
2022-12-08T14:31:27.204Z,6.40
2022-12-08T14:33:56.518Z,6.30
2022-12-08T14:36:23.294Z,6.40
2022-12-08T14:38:56.529Z,6.40
2022-12-08T14:41:31.800Z,6.30
2022-12-08T14:43:59.596Z,6.30
2022-12-08T14:46:26.112Z,6.20
2022-12-08T14:48:54.494Z,6.10
2022-12-08T14:51:21.295Z,6.00
2022-12-08T14:54:00.127Z,5.90
2022-12-08T14:56:40.192Z,5.80
2022-12-08T14:59:19.221Z,5.70
2022-12-08T15:01:46.638Z,5.60
2022-12-08T15:04:13.238Z,5.50
2022-12-08T15:06:58.642Z,5.50
2022-12-08T15:09:31.247Z,5.50
2022-12-08T15:12:01.829Z,5.40
2022-12-08T15:14:30.485Z,5.30
2022-12-08T15:16:57.136Z,5.30
2022-12-08T15:19:28.402Z,5.20
2022-12-08T15:21:59.157Z,5.20
2022-12-08T15:24:27.204Z,5.20
2022-12-08T15:26:53.919Z,5.10
2022-12-08T15:29:20.659Z,5.10
2022-12-08T15:31:47.917Z,5.10
2022-12-08T15:34:14.591Z,5.10
2022-12-08T15:36:42.799Z,5.10
2022-12-08T15:39:28.245Z,5.10
2022-12-08T15:41:54.724Z,5.10
2022-12-08T15:44:21.292Z,5.00
2022-12-08T15:46:47.848Z,5.00
2022-12-08T15:49:18.050Z,5.00
2022-12-08T15:51:44.681Z,5.00
2022-12-08T15:54:11.270Z,5.00
2022-12-08T15:57:10.487Z,5.00
2022-12-08T15:59:31.009Z,5.00
2022-12-08T16:01:57.620Z,4.90
2022-12-08T16:07:21.884Z,4.90
2022-12-08T16:09:49.239Z,4.90
2022-12-08T16:13:40.371Z,4.90
2022-12-08T16:18:15.904Z,4.80
2022-12-08T16:23:42.153Z,4.80
2022-12-08T16:26:44.397Z,4.80
2022-12-08T16:29:04.592Z,4.70
2022-12-08T16:31:31.241Z,4.70
2022-12-08T16:33:57.834Z,4.70
2022-12-08T16:36:24.332Z,4.70
2022-12-08T16:38:50.799Z,4.70
2022-12-08T16:41:35.989Z,4.60
2022-12-08T16:44:03.288Z,4.60
2022-12-08T16:46:29.872Z,4.60
2022-12-08T16:48:58.652Z,4.60
2022-12-08T16:51:27.325Z,4.60
2022-12-08T16:53:54.792Z,4.70
2022-12-08T16:56:22.259Z,4.70
2022-12-08T16:58:52.340Z,4.70
2022-12-08T17:01:19.681Z,4.70
2022-12-08T17:04:01.423Z,4.70
2022-12-08T17:06:32.908Z,4.70
2022-12-08T17:08:59.512Z,4.70
2022-12-08T17:11:28.277Z,4.70
2022-12-08T17:13:54.930Z,4.70
2022-12-08T17:16:21.748Z,4.70
2022-12-08T17:18:48.626Z,4.70
2022-12-08T17:21:16.738Z,4.60
2022-12-08T17:23:43.660Z,4.70
2022-12-08T17:26:10.420Z,4.70
2022-12-08T17:28:59.584Z,4.60
2022-12-08T17:31:29.374Z,4.60
2022-12-08T17:33:58.316Z,4.60
2022-12-08T17:36:24.905Z,4.60
2022-12-08T17:38:51.454Z,4.60
2022-12-08T17:41:18.115Z,4.60
2022-12-08T17:43:44.558Z,4.60
2022-12-08T17:46:16.042Z,4.80
2022-12-08T17:48:42.653Z,4.80
2022-12-08T17:51:09.836Z,4.70
2022-12-08T17:53:37.655Z,4.80
2022-12-08T17:56:04.482Z,4.70
2022-12-08T17:58:31.032Z,4.70
2022-12-08T18:00:57.487Z,4.70
2022-12-08T18:03:24.039Z,4.60
2022-12-08T18:05:50.857Z,4.60
2022-12-08T18:08:17.397Z,4.60
2022-12-08T18:10:44.154Z,4.60
2022-12-08T18:13:10.829Z,4.50
2022-12-08T18:15:39.328Z,4.50
2022-12-08T18:18:06.021Z,4.50
2022-12-08T18:20:32.548Z,4.50
2022-12-08T18:22:59.090Z,4.50
2022-12-08T18:25:25.580Z,4.50
2022-12-08T18:27:52.041Z,4.50
2022-12-08T18:30:18.660Z,4.50
2022-12-08T18:32:45.207Z,4.40
2022-12-08T18:35:11.724Z,4.50
2022-12-08T18:37:38.431Z,4.50
2022-12-08T18:40:05.647Z,4.50
2022-12-08T18:42:33.339Z,4.50
2022-12-08T18:45:04.058Z,4.50
2022-12-08T18:47:31.482Z,4.50
2022-12-08T18:49:58.002Z,4.50
2022-12-08T18:52:31.203Z,4.50
2022-12-08T18:55:06.192Z,4.50
2022-12-08T18:57:33.302Z,4.50
2022-12-08T18:59:59.803Z,4.50
2022-12-08T19:02:26.317Z,4.50
2022-12-08T19:04:55.040Z,4.40
2022-12-08T19:07:21.652Z,4.40
2022-12-08T19:09:48.212Z,4.40
2022-12-08T19:12:14.800Z,4.40
2022-12-08T19:14:41.523Z,4.40
2022-12-08T19:17:08.203Z,4.30
2022-12-08T19:19:34.936Z,4.30
2022-12-08T19:22:01.463Z,4.40
2022-12-08T19:24:28.080Z,4.40
2022-12-08T19:26:54.686Z,4.40
2022-12-08T19:29:21.248Z,4.30
2022-12-08T19:31:47.802Z,4.40
2022-12-08T19:34:14.977Z,4.40
2022-12-08T19:36:45.060Z,4.40
2022-12-08T19:39:33.318Z,4.50
2022-12-08T19:42:18.455Z,4.50
2022-12-08T19:44:54.149Z,4.50
2022-12-08T19:47:24.768Z,4.40
2022-12-08T19:49:51.580Z,4.40
2022-12-08T19:52:18.405Z,4.40
2022-12-08T19:54:44.860Z,4.40
2022-12-08T19:57:11.605Z,4.40
2022-12-08T19:59:38.676Z,4.40
2022-12-08T20:02:05.564Z,4.40
2022-12-08T20:04:32.158Z,4.40
2022-12-08T20:06:58.685Z,4.40
2022-12-08T20:09:25.359Z,4.40
2022-12-08T20:11:54.354Z,4.40
2022-12-08T20:14:21.620Z,4.30
2022-12-08T20:16:48.486Z,4.30
2022-12-08T20:19:15.076Z,4.40
2022-12-08T20:21:41.576Z,4.40
2022-12-08T20:24:08.157Z,4.40
2022-12-08T20:26:34.785Z,4.40
2022-12-08T20:29:01.277Z,4.40
2022-12-08T20:31:29.225Z,4.40
2022-12-08T20:33:55.991Z,4.30
2022-12-08T20:36:22.605Z,4.30
2022-12-08T20:38:50.295Z,4.40
2022-12-08T20:41:17.302Z,4.40
2022-12-08T20:43:44.239Z,4.40
2022-12-08T20:46:12.101Z,4.30
2022-12-08T20:48:38.671Z,4.30
2022-12-08T20:51:05.382Z,4.30
2022-12-08T20:53:31.974Z,4.30
2022-12-08T20:55:58.612Z,4.30
2022-12-08T20:58:25.291Z,4.30
2022-12-08T21:00:52.115Z,4.40
2022-12-08T21:03:18.911Z,4.30
2022-12-08T21:05:52.241Z,4.30
2022-12-08T21:08:19.674Z,4.30
2022-12-08T21:10:52.270Z,4.30
2022-12-08T21:13:18.871Z,4.30
2022-12-08T21:15:46.210Z,4.30
2022-12-08T21:18:13.595Z,4.30
2022-12-08T21:20:40.250Z,4.20
2022-12-08T21:23:06.887Z,4.20
2022-12-08T21:25:33.588Z,4.20
2022-12-08T21:28:00.180Z,4.10
2022-12-08T21:30:26.896Z,4.20
2022-12-08T21:32:53.588Z,4.20
2022-12-08T21:35:20.388Z,4.20
2022-12-08T21:37:46.900Z,4.20
2022-12-08T21:40:13.889Z,4.20
2022-12-08T21:42:43.474Z,4.20
2022-12-08T21:45:14.826Z,4.10
2022-12-08T21:47:41.496Z,4.20
2022-12-08T21:50:08.845Z,4.10
2022-12-08T21:52:42.709Z,4.10
2022-12-08T21:55:10.463Z,4.10
2022-12-08T21:57:37.072Z,4.10
2022-12-08T22:00:04.530Z,4.10
2022-12-08T22:02:31.515Z,4.10
2022-12-08T22:04:58.344Z,4.20
2022-12-08T22:07:25.057Z,4.20
2022-12-08T22:09:51.729Z,4.10
2022-12-08T22:12:18.363Z,4.10
2022-12-08T22:14:45.130Z,4.10
2022-12-08T22:17:11.840Z,4.10
2022-12-08T22:19:38.512Z,4.20
2022-12-08T22:22:05.076Z,4.10
2022-12-08T22:24:31.811Z,4.10
2022-12-08T22:26:58.349Z,4.10
2022-12-08T22:29:24.891Z,4.10
2022-12-08T22:31:51.560Z,4.10
2022-12-08T22:34:18.144Z,4.00
2022-12-08T22:36:44.842Z,4.10
2022-12-08T22:39:12.118Z,4.10
2022-12-08T22:41:38.806Z,4.00
2022-12-08T22:44:06.129Z,4.00
2022-12-08T22:46:32.786Z,4.00
2022-12-08T22:48:59.420Z,4.00
2022-12-08T22:51:25.902Z,4.00
2022-12-08T22:53:52.401Z,4.00
2022-12-08T22:56:19.681Z,4.00
2022-12-08T22:58:46.436Z,4.00
2022-12-08T23:01:24.131Z,4.10
2022-12-08T23:03:50.934Z,4.00
2022-12-08T23:06:18.166Z,4.00
2022-12-08T23:08:45.224Z,4.00
2022-12-08T23:11:12.220Z,4.00
2022-12-08T23:13:39.827Z,4.00
2022-12-08T23:16:08.416Z,4.00
2022-12-08T23:18:35.272Z,3.90
2022-12-08T23:21:05.962Z,3.90
2022-12-08T23:23:32.802Z,3.90
2022-12-08T23:25:59.357Z,3.90
2022-12-08T23:28:25.891Z,3.80
2022-12-08T23:30:52.573Z,3.80
2022-12-08T23:33:19.274Z,3.80
2022-12-08T23:35:45.902Z,3.80
2022-12-08T23:38:12.444Z,3.80
2022-12-08T23:40:38.937Z,3.80
2022-12-08T23:43:06.148Z,3.80
2022-12-08T23:45:32.950Z,3.80
2022-12-08T23:47:59.607Z,3.60
2022-12-08T23:50:26.222Z,3.60
2022-12-08T23:52:52.956Z,3.50
2022-12-08T23:55:19.467Z,3.50
2022-12-08T23:57:45.934Z,3.60
